メインページ
METAR-TAF:

METAR-TAF

空港 :

ウンベルト・デルガード空港

リスボン, ポルトガル

緯度: 38-46N, 経度: 009-08W, 海抜: 114m

現時点の気象観測

当レポートは11分前の06:30(UTC)に作成
南/南西の風 8kt
気温 13°C
湿度 100%
気圧 1015 hPa
視程10km以上
高度500ftの雲はほとんどない
高度1200ftの千切れ雲あり

METAR: LPPT 150630Z 20008KT 9999 FEW005 BKN012 13/13 Q1015

時間: 06:41 (06:41 UTC)

予報

当レポートは1時間41分前の05:00(UTC)に作成
予報は15日の 06時(UTC)から 16日の 12時(UTC)まで有効
南/南西の風 8kt
視程10km以上
高度2000ftの雲は散在している
確率 30% :
15日の 06時(UTC)から 15日の 15時(UTC)まで一時的に
視程: 5000m
高度400ftの雲は散在している
高度800ftの千切れ雲あり
小雨, 霧雨
15日の 15時(UTC)から 15日の 18時(UTC)まで徐々に
南/南西の風 15kt
視程: 5000m
高度500ftの雲は散在している
高度1200ftの千切れ雲あり
小雨
15日の 15時(UTC)から 16日の 09時(UTC)まで一時的に
視程: 3000m
高度200ftの雲は散在している
高度500ftの千切れ雲あり
雨, 霧雨, 靄
16日の 06時(UTC)から 16日の 09時(UTC)まで徐々に
北西の風 10kt
視程10km以上
高度2500ftの雲は散在している

TAF: LPPT 150500Z 1506/1612 20008KT 9999 SCT020 PROB30 TEMPO 1506/1515 5000 -RADZ SCT004 BKN008 BECMG 1515/1518 20015KT 5000 -RA SCT005 BKN012 TEMPO 1515/1609 3000 RADZ BR SCT002 BKN005 BECMG 1606/1609 32010KT 9999 NSW SCT025

4,000以上の空港の気象観測と天気予報(METAR報とTAF報)

利用可能な観測所は地図上に黄色い丸と赤い丸で示す。

丸の上にカーソルを重ねると観測所名を参照できる。

次にクリックすると気象観測と天気予報を参照できる。

マップの切り替え:黒色「×」印の緑ボタンをクリックして拡大、「-」印の緑ボタンをクリックして縮小、緑色の三角印をクリックして隣りの地図に切り替え


METAR-TAF: